Aerodrome Latest Weathers

# Airport/Station Observation Time (Local Time) Wind Visibility (km) Weather Temp. (°C) Dewdrop (°C) Air Pressure (hPa)
Direction (from) Speed (km/h)
1 Sultan Iskandar Muda - Banda Aceh 2020-08-13 16:00:00 WIB Tenggara 9.3 >=10 Berawan 32 20 1006
2 Cut Nyak Dien Nagan Raya - Meulaboh, NAD 2020-08-13 16:00:00 WIB Selatan 5.6 >=10 Berawan 32 24 1007
3 Malikus Saleh - Lhokseumawe 2020-08-13 16:00:00 WIB Timur Laut 7.4 6.0 Cerah - berawan 30 26 1006
4 Binaka - Gunung Sitoli 2020-08-13 16:00:00 WIB Barat Laut 20.4 8.0 Berawan 27 24 1008
5 Dr. Ferdinand Lumban Tobing - Pinangsori (Sibolga) 2020-08-13 16:00:00 WIB Barat 11.1 8.0 Berawan 31 25 1008
6 Silangit - Tapanuli Utara 2020-08-13 16:00:00 WIB Selatan 22.2 8.0 Berawan 22 18 1016
7 Aek Godang - Padang Sidempuan 2020-08-13 16:00:00 WIB Barat 27.8 >=10 Berawan 31 19 1008
8 Minangkabau International Airport - Padang 2020-08-13 16:00:00 WIB Barat Daya 5.6 >=10 Berawan 30 23 1008
9 Sultan Syarif Kasim II - Pekanbaru 2020-08-13 16:00:00 WIB Barat Laut 7.4 9.0 Cerah - berawan 33 20 1005
10 Depati Parbo - Kerinci 2020-08-13 16:00:00 WIB Barat 11.1 >=10 Cerah - berawan 26 20 1011
11 Japura - Rengat 2020-08-13 16:00:00 WIB Barat Daya 9.3 8.0 Cerah - berawan 32 25 1006
12 Fatmawati Sukarno - Bengkulu 2020-08-13 16:00:00 WIB Tenggara 20.4 >=10 Cerah - berawan 28 25 1007
13 Raja Haji Abdullah - Tanjung Balai Karimun 2020-08-13 16:00:00 WIB Timur Laut 7.4 8.0 Berawan 31 23 1006
14 Sultan Thaha - Jambi 2020-08-13 16:00:00 WIB Tenggara 1.9 >=10 Cerah - berawan 28 24 1007
15 Hang Nadim - Batam 2020-08-13 16:00:00 WIB Selatan 14.8 >=10 Cerah - berawan 31 24 1009
16 Raja Haji Fisabilillah - Tanjung Pinang 2020-08-13 16:00:00 WIB Selatan 16.7 >=10 Cerah - berawan 31 24 1008
17 Dabo - Singkep 2020-08-13 16:00:00 WIB Selatan 13.0 9.0 Cerah - berawan 29 25 1007
18 Sultan Mahmud Badaruddin II - Palembang 2020-08-13 16:00:00 WIB Timur 5.6 8.0 Hujan ringan 25 24 1009
19 Radin Inten II - Lampung 2020-08-13 16:00:00 WIB Selatan 5.6 7.0 Guntur 25 23 1009
20 Depati Amir - Pangkal Pinang 2020-08-13 16:00:00 WIB Barat 13.0 7.0 Hujan ringan 24 23 1008
21 Budiarto - Curug 2020-08-13 16:00:00 WIB Barat Daya 11.1 4.9 Halimun 26 24 1009
22 Soekarno Hatta - Jakarta 2020-08-13 16:00:00 WIB Variabel 5.6 1.5 Guntur dan hujan lebat 25 24 1009
23 Halim Perdana Kusuma - Jakarta 2020-08-13 14:00:00 WIB Utara 5.6 5.0 Udara kabur 30 24 1008
24 Suryadarma - Kalijati, Subang 2020-08-13 15:00:00 WIB Barat Daya 7.4 4.0 Guntur dan hujan ringan 22 22 1009
25 H.A.S. Hanandjoeddin - Tanjung Pandan 2020-08-13 16:00:00 WIB Barat Laut 5.6 7.0 Berawan 26 25 1007
26 Kertajati 2020-08-13 16:00:00 WIB Barat 7.4 3.6 Berawan 30 23 1008
27 Wiriadinata - Cibeureum, Tasikmalaya 2020-08-13 16:00:00 WIB Timur Laut 9.3 3.0 Udara kabur 25 22 1011
28 Ranai - Natuna 2020-08-13 16:00:00 WIB Variabel 3.7 0.3 Berkabut 24 24 1008
29 Tunggul Wulung - Cilacap 2020-08-13 16:00:00 WIB Tenggara 20.4 >=10 Berawan 27 24 1009
30 Supadio - Pontianak 2020-08-13 16:00:00 WIB Barat Laut 13.0 >=10 Berawan 30 25 1006
31 Rahadi Oesman - Ketapang 2020-08-13 16:00:00 WIB Barat Daya 11.1 >=10 Cerah - berawan 31 25 1007
32 Yogyakarta International Airport - Kulonprogo 2020-08-13 16:00:00 WIB Tenggara 29.6 9.0 Cerah - berawan 27 24 1009
33 Ahmad Yani - Semarang 2020-08-13 16:00:00 WIB Utara 20.4 8.0 Cerah - berawan 31 25 1007
34 Adi Sutjipto - Yogyakarta 2020-08-13 15:00:00 WIB Tenggara 14.8 7.0 Berawan 30 23 1008
35 Adi Soemarmo - Surakarta 2020-08-13 16:00:00 WIB Selatan 18.5 8.0 Cerah - berawan 31 23 1008
36 Tebelian - Sintang 2020-08-13 14:00:00 WIB Timur Laut 5.6 >=10 Berawan 33 23 1007
37 Iskandar - Pangkalan Bun 2020-08-13 16:00:00 WIB Timur Laut 9.3 >=10 Berawan 32 22 1007
38 Nanga Pinoh 2020-08-13 16:00:00 WIB Utara 3.7 >=10 Berawan 34 23 1006
39 Juanda - Surabaya 2020-08-13 16:00:00 WIB Timur Laut 16.7 >=10 Cerah - berawan 31 22 1008
40 Pangsuma - Putussibau 2020-08-13 16:00:00 WIB Tenang 8.0 Berawan 34 23 1007
41 Haji Asan - Sampit 2020-08-13 16:00:00 WIB Timur Laut 7.4 >=10 Berawan 33 22 1007
42 Noto Hadinegoro - Jember 2020-08-13 14:10:00 WIB Selatan 14.8 7.0 Hujan ringan 29 24 1010
43 Tjilik Riwut - Palangkaraya 2020-08-13 16:00:00 WIB Timur 5.6 >=10 Berawan 33 22 1008
44 Banyuwangi 2020-08-13 16:00:00 WIB Tenggara 16.7 7.0 Berawan 28 25 1010
45 Beringin - Muara Teweh 2020-08-13 16:00:00 WIB Tenang >=10 Berawan 34 23 1007
46 Sanggu - Buntok 2020-08-13 15:00:00 WIB Selatan 5.6 >=10 Berawan 34 24 1008
47 H. Hasan Aroeboesman - Ende 2020-08-13 16:00:00 WIB Tenggara 11.1 8.0 Berawan 27 25 1010
48 Syamsudin Noor - Banjarmasin 2020-08-13 17:00:00 WITA Barat Daya 16.7 >=10 Hujan 31 25 1007
49 I Gusti Ngurah Rai - Denpasar 2020-08-13 17:00:00 WITA Timur 22.2 >=10 Berawan 28 26 1010
50 Yuvai Semaring - Long Bawang 2020-08-13 17:00:00 WITA Barat Laut 11.1 7.0 Berawan 23 20 1015
51 Gusti Sjamsir Alam - Kota Baru 2020-08-13 17:00:00 WITA Timur 7.4 8.0 Berawan 31 27 1007
52 Bandara Internasional Lombok - Praya 2020-08-13 16:30:00 WITA Selatan 16.7 8.0 Berawan 29 22 1010
53 Sultan Aji Muhammad Sulaiman - Sepinggan 2020-08-13 17:00:00 WITA Selatan 7.4 >=10 Cerah - berawan 31 26 1007
54 Aji Pangeran Tumenggung Pranoto - Samarinda 2020-08-13 16:45:00 WITA Variabel 14.8 2.5 Guntur dan hujan 25 22 1008
55 Tanjung Harapan - Tanjung Selor 2020-08-13 16:00:00 WITA Timur 11.1 8.0 Berawan 32 25 1007
56 Sultan Muhammad Kaharuddin - Sumbawa Besar 2020-08-13 17:00:00 WITA Tenggara 14.8 >=10 Berawan 31 21 1008
57 Juwata - Tarakan 2020-08-13 17:00:00 WITA Timur 11.1 >=10 Cerah - berawan 31 24 1007
58 Nunukan 2020-08-13 17:00:00 WITA Timur 16.7 8.0 Cerah - berawan 30 25 1007
59 Sultan Muhammad Salahuddin - Bima 2020-08-13 17:00:00 WITA Selatan 20.4 >=10 Cerah - berawan 30 22 1009
60 Tambolaka - Sumba Barat 2020-08-13 16:00:00 WITA Timur Laut 11.1 >=10 Berawan 30 23 1011
61 Sultan Hasanuddin - Makassar 2020-08-13 17:00:00 WITA Barat 14.8 >=10 Cerah - berawan 32 24 1007
62 Pongtiku - Tana Toraja 2020-08-13 17:00:00 WITA Timur 11.1 >=10 Berawan 28 19 1009
63 Komodo - Labuan Bajo 2020-08-13 17:00:00 WITA Timur Laut 9.3 >=10 Berawan 29 24 1010
64 Mutiara SIS Al-Jufri - Palu 2020-08-13 17:00:00 WITA Utara 22.2 >=10 Berawan 30 24 1009
65 Umbu Mehang Kunda - Waingapu 2020-08-13 17:00:00 WITA Timur 20.4 >=10 Berawan 28 24 1010
66 Andi Jemma - Masamba 2020-08-13 17:00:00 WITA Selatan 7.4 >=10 Cerah - berawan 32 24 1007
67 Frans Sales Lega - Ruteng 2020-08-13 17:00:00 WITA Barat Laut 7.4 >=10 Berawan 22 21 1008
68 Kasiguncu - Poso 2020-08-13 17:00:00 WITA Timur Laut 7.4 9.0 Cerah - berawan 30 25 1008
69 Sultan Bantilan - Toli Toli 2020-08-13 17:00:00 WITA Tenang >=10 Berawan 28 24 1008
70 Sangia Nibandera - Kolaka 2020-08-13 17:00:00 WITA Barat 9.3 >=10 Cerah - berawan 32 24 1008
71 Tardamu - Sabu 2020-08-13 17:00:00 WITA Selatan 13.0 >=10 Cerah - berawan 29 22 1010
72 Fransiskus Xaverius Seda - Maumere 2020-08-13 17:00:00 WITA Barat Daya 13.0 >=10 Cerah - berawan 29 22 1011
73 Haluoleo - Kendari 2020-08-13 17:00:00 WITA Timur 11.1 >=10 Cerah - berawan 29 25 1011
74 Beto Ambari - Bau Bau 2020-08-13 17:00:00 WITA Barat Laut 3.7 >=10 Cerah - berawan 29 24 1011
75 Syukuran Aminuddin Amir - Luwuk 2020-08-13 16:00:00 WITA Barat Daya 16.7 >=10 Cerah - berawan 29 24 1009
76 Djalaluddin - Gorontalo 2020-08-13 17:00:00 WITA Selatan 11.1 >=10 Cerah - berawan 30 23 1007
77 Gewayantana - Larantuka 2020-08-13 17:00:00 WITA Selatan 5.6 >=10 Cerah - berawan 30 23 1009
78 David Constantijn Saudale - Rote 2020-08-13 17:00:00 WITA Selatan 20.4 >=10 Berawan 27 22 1016
79 El Tari - Kupang 2020-08-13 17:00:00 WITA Tenggara 18.5 >=10 Cerah - berawan 28 22 1010
80 Mali - Alor 2020-08-13 17:00:00 WITA Timur Laut 5.6 >=10 Berawan 28 23 1010
81 Emalamo - Sanana 2020-08-13 18:00:00 WIT Barat 5.6 >=10 Berawan 30 23 1009
82 Sultan Babullah - Ternate 2020-08-13 18:00:00 WIT Barat Daya 5.6 >=10 Cerah - berawan 29 25 1010
83 Oesman Sadik - Labuha 2020-08-13 18:00:00 WIT Barat 7.4 9.0 Cerah - berawan 28 21 1009
84 Gamar Malamo - Galela 2020-08-13 17:00:00 WIT Barat 7.4 >=10 Berawan 29 25 1008
85 Pattimura - Ambon 2020-08-13 18:00:00 WIT Selatan 9.3 >=10 Berawan 27 22 1009
86 Pitu - Morotai 2020-08-13 17:00:00 WIT Barat 11.1 >=10 Cerah - berawan 29 24 1008
87 Amahai 2020-08-13 18:00:00 WIT Selatan 5.6 >=10 Berawan 27 26 1010
88 Bandaneira - Banda 2020-08-13 18:00:00 WIT Selatan 11.1 >=10 Cerah - berawan 27 23 1009
89 Domine Eduard Osok - Sorong 2020-08-13 18:00:00 WIT Tenang 2.0 Hujan ringan 25 25 1009
90 Mathilda Batlayeri - Saumlaki 2020-08-13 17:00:00 WIT Timur 9.3 >=10 Berawan 28 22 1010
91 Torea - Fak Fak 2020-08-13 17:00:00 WIT Barat Daya 7.4 6.0 Hujan ringan 26 24 1010
92 Dumatubun - Langgur 2020-08-13 18:00:00 WIT Tenggara 9.3 >=10 Berawan 26 24 1009
93 Utarom - Kaimana 2020-08-13 18:00:00 WIT Selatan 9.3 7.0 Cerah - berawan 27 24 1007
94 Rendani - Manokwari 2020-08-13 18:00:00 WIT Tenang >=10 Berawan 29 24 1008
95 Douw Aturure - Nabire 2020-08-13 18:00:00 WIT Selatan 7.4 7.0 Berawan 30 25 1008
96 Frans Kaisiepo - Biak 2020-08-13 18:00:00 WIT Variabel 3.7 >=10 Berawan 28 24 1009
97 Enarotali 2020-08-13 17:00:00 WIT Tenang 4.0 Hujan ringan 21 17 1008
98 Mozes Kilangin - Timika 2020-08-13 18:00:00 WIT Barat 7.4 9.0 Berawan 26 26 1010
99 Mararena / Orai - Sarmi 2020-08-13 18:00:00 WIT Tenang 7.0 Berawan 28 24 1009
100 Wamena 2020-08-13 17:00:00 WIT Tenggara 31.5 >=10 Hujan tiba-tiba di sekitarnya 23 15 1017
101 Mopah - Merauke 2020-08-13 18:00:00 WIT Timur 16.7 >=10 Berawan 27 22 1009
102 Sentani - Jayapura 2020-08-13 18:00:00 WIT Selatan 3.7 >=10 Cerah - berawan 27 23 1008

Satellite Images

Wave Height Forecast

Wind Forecast

Forest Fires